createdAt,value
2016-07-10T00:00:00.214Z,23.18
2016-07-10T00:01:00.221Z,23.16
2016-07-10T00:01:59.571Z,23.19
2016-07-10T00:02:59.562Z,23.18
2016-07-10T00:03:59.550Z,23.15
2016-07-10T00:05:00.151Z,23.14
2016-07-10T00:06:00.135Z,23.11
2016-07-10T00:07:00.107Z,23.18
2016-07-10T00:08:00.090Z,23.16
2016-07-10T00:09:00.081Z,23.15
2016-07-10T00:09:59.453Z,23.19
2016-07-10T00:11:00.052Z,23.15
2016-07-10T00:12:00.041Z,23.16
2016-07-10T00:13:00.020Z,23.16
2016-07-10T00:14:00.012Z,23.19
2016-07-10T00:15:00.021Z,23.18
2016-07-10T00:15:59.980Z,23.19
2016-07-10T00:16:59.966Z,23.16
2016-07-10T00:17:59.954Z,23.18
2016-07-10T00:18:59.936Z,23.19
2016-07-10T00:19:59.924Z,23.22
2016-07-10T00:20:58.689Z,23.16
2016-07-10T00:21:59.914Z,23.18
2016-07-10T00:22:59.900Z,23.21
2016-07-10T00:23:59.866Z,23.18
2016-07-10T00:24:59.854Z,23.11
2016-07-10T00:25:59.836Z,23.14
2016-07-10T00:26:59.205Z,23.15
2016-07-10T00:27:59.809Z,23.15
2016-07-10T00:28:59.799Z,23.15
2016-07-10T00:29:59.163Z,23.14
2016-07-10T00:30:59.150Z,23.19
2016-07-10T00:31:59.763Z,23.15
2016-07-10T00:32:59.116Z,23.16
2016-07-10T00:33:59.712Z,23.16
2016-07-10T00:34:59.708Z,23.16
2016-07-10T00:35:59.684Z,23.16
2016-07-10T00:36:59.673Z,23.12
2016-07-10T00:37:58.427Z,23.15
2016-07-10T00:38:59.642Z,23.16
2016-07-10T00:39:59.007Z,23.16
2016-07-10T00:40:59.617Z,23.16
2016-07-10T00:41:59.595Z,23.14
2016-07-10T00:42:59.584Z,23.12
2016-07-10T00:43:59.563Z,23.16
2016-07-10T00:44:58.957Z,23.15
2016-07-10T00:45:59.552Z,23.11
2016-07-10T00:46:59.539Z,23.18
2016-07-10T00:47:59.522Z,23.07
2016-07-10T00:48:59.496Z,23.16
2016-07-10T00:49:59.472Z,23.06
2016-07-10T00:50:59.464Z,23.09
2016-07-10T00:51:59.443Z,23.16
2016-07-10T00:52:59.438Z,23.15
2016-07-10T00:53:59.428Z,23.15
2016-07-10T00:54:58.791Z,23.18
2016-07-10T00:55:59.409Z,23.18
2016-07-10T00:56:59.384Z,23.18
2016-07-10T00:57:59.364Z,23.04
2016-07-10T00:58:59.352Z,23.16
2016-07-10T00:59:59.331Z,23.15
2016-07-10T01:00:58.704Z,23.14
2016-07-10T01:01:59.295Z,23.15
2016-07-10T01:02:59.291Z,23.19
2016-07-10T01:03:58.670Z,23.16
2016-07-10T01:04:58.642Z,23.18
2016-07-10T01:05:59.243Z,23.07
2016-07-10T01:06:59.232Z,23.11
2016-07-10T01:07:59.209Z,23.16
2016-07-10T01:08:59.200Z,23.07
2016-07-10T01:09:58.633Z,23.07
2016-07-10T01:10:58.577Z,23.14
2016-07-10T01:11:59.165Z,23.18
2016-07-10T01:12:58.544Z,23.14
2016-07-10T01:13:58.515Z,23.04
2016-07-10T01:14:59.107Z,23.09
2016-07-10T01:15:59.102Z,23.12
2016-07-10T01:16:59.077Z,23.12
2016-07-10T01:17:59.065Z,23.04
2016-07-10T01:18:59.051Z,23.11
2016-07-10T01:19:59.037Z,23.16
2016-07-10T01:20:59.025Z,23.11
2016-07-10T01:21:59.007Z,23.04
2016-07-10T01:22:58.990Z,23.06
2016-07-10T01:23:57.780Z,23.15
2016-07-10T01:24:58.359Z,23.07
2016-07-10T01:25:58.945Z,23.06
2016-07-10T01:26:58.326Z,23.16
2016-07-10T01:27:58.943Z,23.04
2016-07-10T01:28:58.896Z,23.06
2016-07-10T01:29:58.901Z,23.04
2016-07-10T01:30:58.875Z,23.09
2016-07-10T01:31:58.859Z,23.04
2016-07-10T01:32:58.844Z,23.04
2016-07-10T01:33:58.831Z,23.03
2016-07-10T01:34:58.816Z,23
2016-07-10T01:35:58.805Z,23.14
2016-07-10T01:36:58.172Z,23.11
2016-07-10T01:37:58.771Z,23.09
2016-07-10T01:38:58.758Z,23.15
2016-07-10T01:39:58.752Z,23.12
2016-07-10T01:40:58.724Z,23.03
2016-07-10T01:41:58.095Z,23.14
2016-07-10T01:42:58.689Z,23.06
2016-07-10T01:43:58.694Z,23.14
2016-07-10T01:44:58.664Z,23.11
2016-07-10T01:45:58.654Z,23.06
2016-07-10T01:46:58.639Z,23.06
2016-07-10T01:47:58.623Z,23.14
2016-07-10T01:48:58.611Z,23.12
2016-07-10T01:49:57.984Z,23.11
2016-07-10T01:50:58.585Z,23.11
2016-07-10T01:51:58.574Z,23.11
2016-07-10T01:52:58.553Z,23.04
2016-07-10T01:53:58.539Z,23.03
2016-07-10T01:54:58.517Z,23.09
2016-07-10T01:55:58.507Z,23.12
2016-07-10T01:56:58.481Z,23.15
2016-07-10T01:57:58.486Z,23.12
2016-07-10T01:58:57.847Z,23.01
2016-07-10T01:59:57.837Z,23.07
2016-07-10T02:00:58.436Z,23.11
2016-07-10T02:01:58.421Z,23.18
2016-07-10T02:02:58.406Z,23.15
2016-07-10T02:03:58.391Z,23.16
2016-07-10T02:04:58.374Z,23.01
2016-07-10T02:05:58.362Z,23.03
2016-07-10T02:06:57.729Z,23.15
2016-07-10T02:07:58.333Z,23.12
2016-07-10T02:08:58.329Z,23.15
2016-07-10T02:09:58.308Z,23.18
2016-07-10T02:10:57.673Z,23.14
2016-07-10T02:11:58.275Z,23.14
2016-07-10T02:12:58.250Z,23.11
2016-07-10T02:13:58.239Z,23.09
2016-07-10T02:14:58.218Z,23.03
2016-07-10T02:15:58.234Z,23.04
2016-07-10T02:16:57.589Z,23.18
2016-07-10T02:17:56.950Z,22.99
2016-07-10T02:18:57.552Z,23
2016-07-10T02:19:58.156Z,23.15
2016-07-10T02:20:58.138Z,23.09
2016-07-10T02:21:58.123Z,23.03
2016-07-10T02:22:58.099Z,22.99
2016-07-10T02:23:58.091Z,23.03
2016-07-10T02:24:58.075Z,23.11
2016-07-10T02:25:58.064Z,23.06
2016-07-10T02:26:58.051Z,22.99
2016-07-10T02:27:58.035Z,23.06
2016-07-10T02:28:57.410Z,23.11
2016-07-10T02:29:58.001Z,23.16
2016-07-10T02:30:57.985Z,23.18
2016-07-10T02:31:57.968Z,23.03
2016-07-10T02:32:57.955Z,23.04
2016-07-10T02:33:57.941Z,23.14
2016-07-10T02:34:57.924Z,23.14
2016-07-10T02:35:57.283Z,23.07
2016-07-10T02:36:57.897Z,23.06
2016-07-10T02:37:57.891Z,23.04
2016-07-10T02:38:57.865Z,22.96
2016-07-10T02:39:57.854Z,23.16
2016-07-10T02:40:57.843Z,23.07
2016-07-10T02:41:57.820Z,23.03
2016-07-10T02:42:57.210Z,23.06
2016-07-10T02:43:57.184Z,23.15
2016-07-10T02:44:57.771Z,23.03
2016-07-10T02:45:57.159Z,23.11
2016-07-10T02:46:57.748Z,23.03
2016-07-10T02:47:57.739Z,23.03
2016-07-10T02:48:57.115Z,23.01
2016-07-10T02:49:57.712Z,23.16
2016-07-10T02:50:57.692Z,23.07
2016-07-10T02:51:57.673Z,22.97
2016-07-10T02:52:57.659Z,23.03
2016-07-10T02:53:57.650Z,22.99
2016-07-10T02:54:57.637Z,23.06
2016-07-10T02:55:57.008Z,22.99
2016-07-10T02:56:57.596Z,23.04
2016-07-10T02:57:57.589Z,23.01
2016-07-10T02:58:57.576Z,22.97
2016-07-10T02:59:56.951Z,23.06
2016-07-10T03:00:57.539Z,23.12
2016-07-10T03:01:57.524Z,23.04
2016-07-10T03:02:57.508Z,22.97
2016-07-10T03:03:57.492Z,23.06
2016-07-10T03:04:56.873Z,23
2016-07-10T03:05:57.475Z,22.94
2016-07-10T03:06:56.848Z,23.01
2016-07-10T03:07:56.827Z,22.99
2016-07-10T03:08:56.802Z,23.01
2016-07-10T03:09:56.804Z,22.94
2016-07-10T03:10:57.389Z,23.01
2016-07-10T03:11:57.376Z,22.97
2016-07-10T03:12:56.751Z,23.06
2016-07-10T03:13:57.351Z,23.01
2016-07-10T03:14:56.716Z,23.01
2016-07-10T03:15:56.702Z,23.01
2016-07-10T03:16:57.307Z,22.97
2016-07-10T03:17:56.682Z,22.88
2016-07-10T03:18:57.274Z,22.93
2016-07-10T03:19:57.263Z,22.96
2016-07-10T03:20:56.632Z,22.99
2016-07-10T03:21:57.235Z,23.03
2016-07-10T03:22:57.209Z,23
2016-07-10T03:23:56.582Z,22.89
2016-07-10T03:24:57.177Z,22.89
2016-07-10T03:25:57.183Z,23.01
2016-07-10T03:26:57.159Z,22.99
2016-07-10T03:27:57.142Z,22.96
2016-07-10T03:28:57.128Z,22.93
2016-07-10T03:29:57.109Z,23.03
2016-07-10T03:30:55.883Z,22.99
2016-07-10T03:31:57.086Z,23.06
2016-07-10T03:32:57.072Z,23.16
2016-07-10T03:33:57.047Z,22.96
2016-07-10T03:34:57.043Z,23.14
2016-07-10T03:35:56.416Z,23.12
2016-07-10T03:36:57.015Z,23.18
2016-07-10T03:37:57.000Z,23.09
2016-07-10T03:38:56.983Z,23.15
2016-07-10T03:39:56.965Z,23.14
2016-07-10T03:40:56.947Z,23.12
2016-07-10T03:41:56.931Z,23.01
2016-07-10T03:42:56.919Z,23
2016-07-10T03:43:56.914Z,22.94
2016-07-10T03:44:56.891Z,22.97
2016-07-10T03:45:56.875Z,23.03
2016-07-10T03:46:56.867Z,22.97
2016-07-10T03:47:56.837Z,23.04
2016-07-10T03:48:56.214Z,23.06
2016-07-10T03:49:56.811Z,23.01
2016-07-10T03:50:56.804Z,22.97
2016-07-10T03:51:56.169Z,22.99
2016-07-10T03:52:56.777Z,22.99
2016-07-10T03:53:56.756Z,23.04
2016-07-10T03:54:56.737Z,23.07
2016-07-10T03:55:56.731Z,23.06
2016-07-10T03:56:56.711Z,23.01
2016-07-10T03:57:56.694Z,23.06
2016-07-10T03:58:56.673Z,22.94
2016-07-10T03:59:56.055Z,23.01
2016-07-10T04:00:56.651Z,22.99
2016-07-10T04:01:56.634Z,23.01
2016-07-10T04:02:56.625Z,23.01
2016-07-10T04:03:56.604Z,22.97
2016-07-10T04:04:56.596Z,22.99
2016-07-10T04:05:56.588Z,23.01
2016-07-10T04:06:56.565Z,23.01
2016-07-10T04:07:56.544Z,23.03
2016-07-10T04:08:56.536Z,22.99
2016-07-10T04:09:55.905Z,23.06
2016-07-10T04:10:56.497Z,22.97
2016-07-10T04:11:56.494Z,23.06
2016-07-10T04:12:56.475Z,23
2016-07-10T04:13:56.457Z,23.01
2016-07-10T04:14:56.446Z,23
2016-07-10T04:15:56.423Z,23
2016-07-10T04:16:56.418Z,23.01
2016-07-10T04:17:56.396Z,23.06
2016-07-10T04:18:56.384Z,22.99
2016-07-10T04:19:56.363Z,23.01
2016-07-10T04:20:56.353Z,23
2016-07-10T04:21:56.341Z,23.01
2016-07-10T04:22:55.711Z,22.97
2016-07-10T04:23:56.311Z,22.99
2016-07-10T04:24:56.293Z,22.99
2016-07-10T04:25:56.290Z,22.97
2016-07-10T04:26:56.269Z,22.99
2016-07-10T04:27:56.250Z,23
2016-07-10T04:28:56.235Z,22.96
2016-07-10T04:29:56.223Z,23
2016-07-10T04:30:56.205Z,23.03
2016-07-10T04:31:56.248Z,23.03
2016-07-10T04:32:56.176Z,22.99
2016-07-10T04:33:56.163Z,23.01
2016-07-10T04:34:56.147Z,23.01
2016-07-10T04:35:55.519Z,23
2016-07-10T04:36:55.499Z,22.97
2016-07-10T04:37:56.103Z,22.99
2016-07-10T04:38:56.089Z,22.96
2016-07-10T04:39:56.078Z,22.94
2016-07-10T04:40:56.056Z,23
2016-07-10T04:41:56.043Z,23
2016-07-10T04:42:56.037Z,22.93
2016-07-10T04:43:56.022Z,23.01
2016-07-10T04:44:56.006Z,23.01
2016-07-10T04:45:55.981Z,22.96
2016-07-10T04:46:55.966Z,23.01
2016-07-10T04:47:55.968Z,23
2016-07-10T04:48:55.939Z,23.01
2016-07-10T04:49:55.924Z,22.97
2016-07-10T04:50:55.908Z,22.97
2016-07-10T04:51:55.282Z,22.93
2016-07-10T04:52:55.880Z,23
2016-07-10T04:53:55.262Z,22.97
2016-07-10T04:54:55.248Z,23.03
2016-07-10T04:55:55.835Z,22.99
2016-07-10T04:56:55.221Z,23
2016-07-10T04:57:55.805Z,22.96
2016-07-10T04:58:55.791Z,23.01
2016-07-10T04:59:55.774Z,23.04
2016-07-10T05:00:55.760Z,22.97
2016-07-10T05:01:55.745Z,23.01
2016-07-10T05:02:55.736Z,23.01
2016-07-10T05:03:55.723Z,23.04
2016-07-10T05:04:55.703Z,23
2016-07-10T05:05:55.693Z,23
2016-07-10T05:06:55.669Z,23
2016-07-10T05:07:55.661Z,22.96
2016-07-10T05:08:55.023Z,23
2016-07-10T05:09:55.012Z,22.97
2016-07-10T05:10:55.621Z,23.03
2016-07-10T05:11:55.604Z,22.99
2016-07-10T05:12:55.588Z,23.01
2016-07-10T05:13:54.952Z,23.03
2016-07-10T05:14:54.948Z,23.06
2016-07-10T05:15:54.931Z,23.04
2016-07-10T05:16:55.523Z,23.06
2016-07-10T05:17:55.513Z,23.07
2016-07-10T05:18:55.503Z,22.99
2016-07-10T05:19:54.869Z,23.06
2016-07-10T05:20:55.467Z,23.18
2016-07-10T05:21:55.460Z,23.07
2016-07-10T05:22:55.438Z,23
2016-07-10T05:23:55.417Z,23.07
2016-07-10T05:24:55.410Z,23.03
2016-07-10T05:25:55.391Z,23.14
2016-07-10T05:26:54.769Z,22.99
2016-07-10T05:27:55.369Z,23
2016-07-10T05:28:55.349Z,23.12
2016-07-10T05:29:55.328Z,23.11
2016-07-10T05:30:55.318Z,23.07
2016-07-10T05:31:55.306Z,23.12
2016-07-10T05:32:55.290Z,23.04
2016-07-10T05:33:54.669Z,23.18
2016-07-10T05:34:55.262Z,23.11
2016-07-10T05:35:54.628Z,23.06
2016-07-10T05:36:55.220Z,23.07
2016-07-10T05:37:55.218Z,23.11
2016-07-10T05:38:55.197Z,23.09
2016-07-10T05:39:55.191Z,23.11
2016-07-10T05:40:55.169Z,23.15
2016-07-10T05:41:55.163Z,23.07
2016-07-10T05:42:55.145Z,23.11
2016-07-10T05:43:55.129Z,23.07
2016-07-10T05:44:55.119Z,23.06
2016-07-10T05:45:55.109Z,23.14
2016-07-10T05:46:55.085Z,23.03
2016-07-10T05:47:54.458Z,23.11
2016-07-10T05:48:55.055Z,23.15
2016-07-10T05:49:54.424Z,23.15
2016-07-10T05:50:55.025Z,23.09
2016-07-10T05:51:55.014Z,23.04
2016-07-10T05:52:54.994Z,23.07
2016-07-10T05:53:54.982Z,23.09
2016-07-10T05:54:54.956Z,23.06
2016-07-10T05:55:54.951Z,23.04
2016-07-10T05:56:54.934Z,23.07
2016-07-10T05:57:54.921Z,23.04
2016-07-10T05:58:54.291Z,23.04
2016-07-10T05:59:54.893Z,23.06
2016-07-10T06:00:54.261Z,23.09
2016-07-10T06:01:54.862Z,23.14
2016-07-10T06:02:54.846Z,23.03
2016-07-10T06:03:54.831Z,23.01
2016-07-10T06:04:54.812Z,23.04
2016-07-10T06:05:54.799Z,23.07
2016-07-10T06:06:54.802Z,23.11
2016-07-10T06:07:54.776Z,23.11
2016-07-10T06:08:54.756Z,23.11
2016-07-10T06:09:54.744Z,23.04
2016-07-10T06:10:54.723Z,23.15
2016-07-10T06:11:54.713Z,23.09
2016-07-10T06:12:54.088Z,23.07
2016-07-10T06:13:54.686Z,23.18
2016-07-10T06:14:54.682Z,23.12
2016-07-10T06:15:54.652Z,23.14
2016-07-10T06:16:54.642Z,23.09
2016-07-10T06:17:54.623Z,23.04
2016-07-10T06:18:54.613Z,23.16
2016-07-10T06:19:54.602Z,23.14
2016-07-10T06:20:53.970Z,23.14
2016-07-10T06:21:54.579Z,23.12
2016-07-10T06:22:54.554Z,23.16
2016-07-10T06:23:54.534Z,23.19
2016-07-10T06:24:54.520Z,23.19
2016-07-10T06:25:53.892Z,23.18
2016-07-10T06:26:54.493Z,23.18
2016-07-10T06:27:54.478Z,23.14
2016-07-10T06:28:54.464Z,23.15
2016-07-10T06:29:53.834Z,23.16
2016-07-10T06:30:54.436Z,23.14
2016-07-10T06:31:54.470Z,23.18
2016-07-10T06:32:54.399Z,23.26
2016-07-10T06:33:54.404Z,23.29
2016-07-10T06:34:54.372Z,23.19
2016-07-10T06:35:53.753Z,23.14
2016-07-10T06:36:54.348Z,23.16
2016-07-10T06:37:54.332Z,23.25
2016-07-10T06:38:54.320Z,23.16
2016-07-10T06:39:53.691Z,23.15
2016-07-10T06:40:54.296Z,23.16
2016-07-10T06:41:54.273Z,23.23
2016-07-10T06:42:54.256Z,23.35
2016-07-10T06:43:54.244Z,23.18
2016-07-10T06:44:54.229Z,23.19
2016-07-10T06:45:54.212Z,23.18
2016-07-10T06:46:54.200Z,23.22
2016-07-10T06:47:54.188Z,23.19
2016-07-10T06:48:54.164Z,23.26
2016-07-10T06:49:54.168Z,23.23
2016-07-10T06:50:54.142Z,23.18
2016-07-10T06:51:54.127Z,23.25
2016-07-10T06:52:53.497Z,23.23
2016-07-10T06:53:54.093Z,23.26
2016-07-10T06:54:54.084Z,23.22
2016-07-10T06:55:54.074Z,23.32
2016-07-10T06:56:54.062Z,23.21
2016-07-10T06:57:54.056Z,23.25
2016-07-10T06:58:54.019Z,23.25
2016-07-10T06:59:53.387Z,23.21
2016-07-10T07:00:54.002Z,23.23
2016-07-10T07:01:53.985Z,23.25
2016-07-10T07:02:53.964Z,23.21
2016-07-10T07:03:53.945Z,23.19
2016-07-10T07:04:53.931Z,23.21
2016-07-10T07:05:53.922Z,23.21
2016-07-10T07:06:53.907Z,23.21
2016-07-10T07:07:53.276Z,23.22
2016-07-10T07:08:53.876Z,23.21
2016-07-10T07:09:53.860Z,23.26
2016-07-10T07:10:53.850Z,23.23
2016-07-10T07:11:53.822Z,23.32
2016-07-10T07:12:53.821Z,23.26
2016-07-10T07:13:53.795Z,23.22
2016-07-10T07:14:53.785Z,23.23
2016-07-10T07:15:53.770Z,23.23
2016-07-10T07:16:53.806Z,23.32
2016-07-10T07:17:53.741Z,23.29
2016-07-10T07:18:53.732Z,23.32
2016-07-10T07:19:53.707Z,23.35
2016-07-10T07:20:53.701Z,23.29
2016-07-10T07:21:53.693Z,23.32
2016-07-10T07:22:53.670Z,23.35
2016-07-10T07:23:53.669Z,23.26
2016-07-10T07:24:53.025Z,23.22
2016-07-10T07:25:53.624Z,23.29
2016-07-10T07:26:53.614Z,23.37
2016-07-10T07:27:53.602Z,23.26
2016-07-10T07:28:53.590Z,23.37
2016-07-10T07:29:53.565Z,23.32
2016-07-10T07:30:53.548Z,23.31
2016-07-10T07:31:53.538Z,23.38
2016-07-10T07:32:53.516Z,23.26
2016-07-10T07:33:53.513Z,23.35
2016-07-10T07:34:53.491Z,23.34
2016-07-10T07:35:52.857Z,23.32
2016-07-10T07:36:53.462Z,23.32
2016-07-10T07:37:53.442Z,23.31
2016-07-10T07:38:53.437Z,23.34
2016-07-10T07:39:53.428Z,23.39
2016-07-10T07:40:53.402Z,23.35
2016-07-10T07:41:53.383Z,23.34
2016-07-10T07:42:53.379Z,23.26
2016-07-10T07:43:53.356Z,23.39
2016-07-10T07:44:53.348Z,23.34
2016-07-10T07:45:53.327Z,23.29
2016-07-10T07:46:52.702Z,23.34
2016-07-10T07:47:53.295Z,23.41
2016-07-10T07:48:53.281Z,23.37
2016-07-10T07:49:52.658Z,23.41
2016-07-10T07:50:53.264Z,23.42
2016-07-10T07:51:52.631Z,23.38
2016-07-10T07:52:53.230Z,23.38
2016-07-10T07:53:53.214Z,23.41
2016-07-10T07:54:53.203Z,23.34
2016-07-10T07:55:53.188Z,23.34
2016-07-10T07:56:53.179Z,23.39
2016-07-10T07:57:53.152Z,23.39
2016-07-10T07:58:53.138Z,23.35
2016-07-10T07:59:52.512Z,23.39
2016-07-10T08:00:53.110Z,23.39
2016-07-10T08:01:53.103Z,23.39
2016-07-10T08:02:53.082Z,23.39
2016-07-10T08:03:53.068Z,23.38
2016-07-10T08:04:53.058Z,23.38
2016-07-10T08:05:52.434Z,23.31
2016-07-10T08:06:52.423Z,23.39
2016-07-10T08:07:52.391Z,23.38
2016-07-10T08:08:52.992Z,23.39
2016-07-10T08:09:52.981Z,23.37
2016-07-10T08:10:52.961Z,23.38
2016-07-10T08:11:52.953Z,23.38
2016-07-10T08:12:52.935Z,23.42
2016-07-10T08:13:52.310Z,23.38
2016-07-10T08:14:52.905Z,23.41
2016-07-10T08:15:52.892Z,23.35
2016-07-10T08:16:52.884Z,23.38
2016-07-10T08:17:52.867Z,23.39
2016-07-10T08:18:52.847Z,23.37
2016-07-10T08:19:52.835Z,23.37
2016-07-10T08:20:52.815Z,23.42
2016-07-10T08:21:52.805Z,23.39
2016-07-10T08:22:52.817Z,23.42
2016-07-10T08:23:52.169Z,23.39
2016-07-10T08:24:52.768Z,23.41
2016-07-10T08:25:52.752Z,23.41
2016-07-10T08:26:52.733Z,23.39
2016-07-10T08:27:52.715Z,23.38
2016-07-10T08:28:52.704Z,23.37
2016-07-10T08:29:52.693Z,23.42
2016-07-10T08:30:52.684Z,23.42
2016-07-10T08:31:52.659Z,23.41
2016-07-10T08:32:52.645Z,23.39
2016-07-10T08:33:52.635Z,23.39
2016-07-10T08:34:52.629Z,23.41
2016-07-10T08:35:52.607Z,23.39
2016-07-10T08:36:52.591Z,23.41
2016-07-10T08:37:52.575Z,23.44
2016-07-10T08:38:52.569Z,23.42
2016-07-10T08:39:52.549Z,23.39
2016-07-10T08:40:52.530Z,23.41
2016-07-10T08:41:52.512Z,23.39
2016-07-10T08:42:51.881Z,23.42
2016-07-10T08:43:52.483Z,23.42
2016-07-10T08:44:52.470Z,23.38
2016-07-10T08:45:51.838Z,23.47
2016-07-10T08:46:52.442Z,23.44
2016-07-10T08:47:52.421Z,23.39
2016-07-10T08:48:52.412Z,23.42
2016-07-10T08:49:52.399Z,23.41
2016-07-10T08:50:52.380Z,23.42
2016-07-10T08:51:52.366Z,23.35
2016-07-10T08:52:52.352Z,23.44
2016-07-10T08:53:52.347Z,23.42
2016-07-10T08:54:52.325Z,23.45
2016-07-10T08:55:52.305Z,23.47
2016-07-10T08:56:52.292Z,23.39
2016-07-10T08:57:52.275Z,23.44
2016-07-10T08:58:52.273Z,23.47
2016-07-10T08:59:52.246Z,23.41
2016-07-10T09:00:52.240Z,23.5
2016-07-10T09:01:52.222Z,23.47
2016-07-10T09:02:52.212Z,23.5
2016-07-10T09:03:52.198Z,23.45
2016-07-10T09:04:52.177Z,23.39
2016-07-10T09:05:52.168Z,23.5
2016-07-10T09:06:52.146Z,23.54
2016-07-10T09:07:52.156Z,23.5
2016-07-10T09:08:51.496Z,23.45
2016-07-10T09:09:51.491Z,23.45
2016-07-10T09:10:52.090Z,23.53
2016-07-10T09:11:52.082Z,23.47
2016-07-10T09:12:52.059Z,23.47
2016-07-10T09:13:52.045Z,23.5
2016-07-10T09:14:52.031Z,23.5
2016-07-10T09:15:52.023Z,23.5
2016-07-10T09:16:51.404Z,23.47
2016-07-10T09:17:51.999Z,23.49
2016-07-10T09:18:51.366Z,23.45
2016-07-10T09:19:51.977Z,23.39
2016-07-10T09:20:51.943Z,23.49
2016-07-10T09:21:51.933Z,23.41
2016-07-10T09:22:51.911Z,23.49
2016-07-10T09:23:51.906Z,23.41
2016-07-10T09:24:51.885Z,23.44
2016-07-10T09:25:51.876Z,23.5
2016-07-10T09:26:51.858Z,23.39
2016-07-10T09:27:51.849Z,23.56
2016-07-10T09:28:51.830Z,23.45
2016-07-10T09:29:51.196Z,23.52
2016-07-10T09:30:51.816Z,23.53
2016-07-10T09:31:51.792Z,23.47
2016-07-10T09:32:51.767Z,23.42
2016-07-10T09:33:51.764Z,23.5
2016-07-10T09:34:51.128Z,23.54
2016-07-10T09:35:51.735Z,23.56
2016-07-10T09:36:51.710Z,23.45
2016-07-10T09:37:51.705Z,23.45
2016-07-10T09:38:51.676Z,23.5
2016-07-10T09:39:51.667Z,23.42
2016-07-10T09:40:51.669Z,23.5
2016-07-10T09:41:51.641Z,23.39
2016-07-10T09:42:51.636Z,23.44
2016-07-10T09:43:51.618Z,23.47
2016-07-10T09:44:51.616Z,23.47
2016-07-10T09:45:51.584Z,23.42
2016-07-10T09:46:51.579Z,23.5
2016-07-10T09:47:51.556Z,23.52
2016-07-10T09:48:51.537Z,23.41
2016-07-10T09:49:51.535Z,23.53
2016-07-10T09:50:51.515Z,23.53
2016-07-10T09:51:51.497Z,23.5
2016-07-10T09:52:51.485Z,23.59
2016-07-10T09:53:51.465Z,23.53
2016-07-10T09:54:51.460Z,23.52
2016-07-10T09:55:51.434Z,23.52
2016-07-10T09:56:51.430Z,23.54
2016-07-10T09:57:51.405Z,23.59
2016-07-10T09:58:51.399Z,23.5
2016-07-10T09:59:50.766Z,23.59
2016-07-10T10:00:51.367Z,23.53
2016-07-10T10:01:51.353Z,23.41
2016-07-10T10:02:51.345Z,23.49
2016-07-10T10:03:51.327Z,23.57
2016-07-10T10:04:51.312Z,23.52
2016-07-10T10:05:50.686Z,23.6
2016-07-10T10:06:51.284Z,23.59
2016-07-10T10:07:51.266Z,23.6
2016-07-10T10:08:51.249Z,23.52
2016-07-10T10:09:51.241Z,23.56
2016-07-10T10:10:51.224Z,23.53
2016-07-10T10:11:51.211Z,23.62
2016-07-10T10:12:50.575Z,23.52
2016-07-10T10:13:51.180Z,23.56
2016-07-10T10:14:51.166Z,23.6
2016-07-10T10:15:51.150Z,23.6
2016-07-10T10:16:51.137Z,23.59
2016-07-10T10:17:51.129Z,23.67
2016-07-10T10:18:51.111Z,23.57
2016-07-10T10:19:51.097Z,23.69
2016-07-10T10:20:50.469Z,23.74
2016-07-10T10:21:50.457Z,24.04
2016-07-10T10:22:51.057Z,24.14
2016-07-10T10:23:51.064Z,24.27
2016-07-10T10:24:51.036Z,24.19
2016-07-10T10:25:51.008Z,24.12
2016-07-10T10:26:50.990Z,24.23
2016-07-10T10:27:50.979Z,24.16
2016-07-10T10:28:50.964Z,24.27
2016-07-10T10:29:50.962Z,24.11
2016-07-10T10:30:50.947Z,24.14
2016-07-10T10:31:50.920Z,24.09
2016-07-10T10:32:50.913Z,24.06
2016-07-10T10:33:50.276Z,24.15
2016-07-10T10:34:50.887Z,24.14
2016-07-10T10:35:50.251Z,24.12
2016-07-10T10:36:50.852Z,24.16
2016-07-10T10:37:50.836Z,24.12
2016-07-10T10:38:50.826Z,24.15
2016-07-10T10:39:50.803Z,24.15
2016-07-10T10:40:50.797Z,24.06
2016-07-10T10:41:50.779Z,24.05
2016-07-10T10:42:50.763Z,24
2016-07-10T10:43:50.744Z,24
2016-07-10T10:44:50.123Z,23.99
2016-07-10T10:45:50.718Z,23.89
2016-07-10T10:46:50.702Z,23.93
2016-07-10T10:47:50.691Z,23.92
2016-07-10T10:48:50.067Z,23.89
2016-07-10T10:49:50.656Z,23.89
2016-07-10T10:50:50.648Z,23.92
2016-07-10T10:51:50.634Z,23.9
2016-07-10T10:52:50.616Z,23.93
2016-07-10T10:53:50.601Z,23.84
2016-07-10T10:54:50.594Z,23.87
2016-07-10T10:55:50.574Z,23.9
2016-07-10T10:56:50.560Z,23.93
2016-07-10T10:57:50.551Z,23.96
2016-07-10T10:58:49.922Z,24.05
2016-07-10T10:59:50.513Z,24.04
2016-07-10T11:00:50.498Z,24.02
2016-07-10T11:01:50.485Z,24.14
2016-07-10T11:02:50.467Z,24.04
2016-07-10T11:03:50.463Z,24.06
2016-07-10T11:04:50.439Z,24.05
2016-07-10T11:05:50.428Z,24.04
2016-07-10T11:06:50.429Z,24.05
2016-07-10T11:07:50.402Z,24.06
2016-07-10T11:08:50.395Z,24.15
2016-07-10T11:09:50.370Z,24.11
2016-07-10T11:10:49.743Z,24.12
2016-07-10T11:11:50.349Z,24.05
2016-07-10T11:12:50.322Z,24.04
2016-07-10T11:13:50.322Z,24.05
2016-07-10T11:14:50.296Z,23.96
2016-07-10T11:15:50.285Z,23.93
2016-07-10T11:16:50.290Z,23.92
2016-07-10T11:17:49.643Z,23.96
2016-07-10T11:18:50.242Z,23.99
2016-07-10T11:19:50.230Z,23.99
2016-07-10T11:20:50.216Z,23.96
2016-07-10T11:21:50.203Z,23.97
2016-07-10T11:22:50.187Z,23.93
2016-07-10T11:23:50.174Z,24
2016-07-10T11:24:49.549Z,23.93
2016-07-10T11:25:50.151Z,23.92
2016-07-10T11:26:50.135Z,23.93
2016-07-10T11:27:50.117Z,23.96
2016-07-10T11:28:50.106Z,23.99
2016-07-10T11:29:50.096Z,23.9
2016-07-10T11:30:50.071Z,23.96
2016-07-10T11:31:50.064Z,23.89
2016-07-10T11:32:50.051Z,23.97
2016-07-10T11:33:50.043Z,23.94
2016-07-10T11:34:50.026Z,24
2016-07-10T11:35:50.000Z,23.96
2016-07-10T11:36:49.993Z,23.93
2016-07-10T11:37:49.974Z,23.96
2016-07-10T11:38:49.970Z,23.93
2016-07-10T11:39:49.944Z,23.93
2016-07-10T11:40:49.933Z,23.92
2016-07-10T11:41:49.922Z,23.96
2016-07-10T11:42:49.900Z,23.87
2016-07-10T11:43:49.884Z,23.94
2016-07-10T11:44:49.892Z,23.93
2016-07-10T11:45:49.237Z,23.9
2016-07-10T11:46:49.856Z,23.97
2016-07-10T11:47:49.827Z,23.93
2016-07-10T11:48:49.815Z,23.94
2016-07-10T11:49:49.806Z,23.93
2016-07-10T11:50:49.799Z,23.93
2016-07-10T11:51:49.781Z,23.92
2016-07-10T11:52:49.756Z,23.96
2016-07-10T11:53:49.747Z,23.94
2016-07-10T11:54:49.729Z,23.97
2016-07-10T11:55:49.722Z,24.04
2016-07-10T11:56:49.697Z,24.02
2016-07-10T11:57:49.688Z,24.11
2016-07-10T11:58:49.677Z,24.15
2016-07-10T11:59:49.668Z,24.11
2016-07-10T12:00:49.647Z,24.14
2016-07-10T12:01:49.624Z,24.12
2016-07-10T12:02:49.621Z,24.18
2016-07-10T12:03:49.613Z,24.15
2016-07-10T12:04:49.600Z,24.04
2016-07-10T12:05:49.585Z,24.02
2016-07-10T12:06:49.559Z,24
2016-07-10T12:07:49.544Z,24.09
2016-07-10T12:08:49.542Z,23.99
2016-07-10T12:09:49.523Z,23.99
2016-07-10T12:10:49.509Z,24.08
2016-07-10T12:11:49.487Z,24.05
2016-07-10T12:12:49.474Z,24.09
2016-07-10T12:13:48.841Z,24.02
2016-07-10T12:14:49.449Z,24.04
2016-07-10T12:15:49.436Z,24.08
2016-07-10T12:16:49.424Z,24.11
2016-07-10T12:17:49.399Z,24.04
2016-07-10T12:18:49.383Z,24.06
2016-07-10T12:19:48.770Z,24.06
2016-07-10T12:20:49.353Z,23.99
2016-07-10T12:21:49.338Z,24.08
2016-07-10T12:22:49.341Z,24
2016-07-10T12:23:49.316Z,23.97
2016-07-10T12:24:49.309Z,24.08
2016-07-10T12:25:48.673Z,24.05
2016-07-10T12:26:49.285Z,24.06
2016-07-10T12:27:49.280Z,24.06
2016-07-10T12:28:49.255Z,24.05
2016-07-10T12:29:48.613Z,24.05
2016-07-10T12:30:49.219Z,24.05
2016-07-10T12:31:49.196Z,24.06
2016-07-10T12:32:49.240Z,24.08
2016-07-10T12:33:48.561Z,24.11
2016-07-10T12:34:49.160Z,24.02
2016-07-10T12:35:49.150Z,24.15
2016-07-10T12:36:49.123Z,24
2016-07-10T12:37:49.129Z,24.11
2016-07-10T12:38:49.103Z,24.02
2016-07-10T12:39:49.095Z,24.02
2016-07-10T12:40:48.470Z,23.96
2016-07-10T12:41:49.073Z,24.08
2016-07-10T12:42:48.435Z,24.09
2016-07-10T12:43:49.030Z,24.06
2016-07-10T12:44:49.020Z,24.05
2016-07-10T12:45:49.011Z,24.08
2016-07-10T12:46:48.988Z,24.05
2016-07-10T12:47:48.980Z,24.08
2016-07-10T12:48:48.348Z,24.02
2016-07-10T12:49:48.336Z,24.11
2016-07-10T12:50:48.929Z,24.11
2016-07-10T12:51:48.301Z,24.06
2016-07-10T12:52:48.902Z,24.08
2016-07-10T12:53:48.895Z,24.06
2016-07-10T12:54:48.878Z,24.11
2016-07-10T12:55:48.258Z,24.12